Time;durP1;ratioP1;P1;durP2;ratioP2;P2;SDS_P1;SDS_P2;PMS_P1;PMS_P2;Temp;Humidity;BMP_temperature;BMP_pressure;BME280_temperature;BME280_humidity;BME280_pressure;Samples;Min_cycle;Max_cycle;Signal;HPM_P1;HPM_P2
2022/06/05 00:00:32;;;;;;;13.95;9.68;;;;;;;;;;5051694;28;20424;-73
2022/06/05 00:03:29;;;;;;;14.50;9.55;;;;;;;;;;5051747;28;20039;-74
2022/06/05 00:06:26;;;;;;;16.13;9.60;;;;;;;;;;5051224;28;20476;-73
2022/06/05 00:09:13;;;;;;;17.88;10.02;;;;;;;;;;5053849;28;20071;-73
2022/06/05 00:12:00;;;;;;;14.82;9.55;;;;;;;;;;5055533;28;20104;-73
2022/06/05 00:14:26;;;;;;;14.50;9.95;;;;;;;;;;5055798;28;20029;-73
2022/06/05 00:16:51;;;;;;;15.32;10.00;;;;;;;;;;5055204;28;20035;-73
2022/06/05 00:19:17;;;;;;;13.02;9.70;;;;;;;;;;5056982;28;20041;-71
2022/06/05 00:21:42;;;;;;;14.35;10.27;;;;;;;;;;5056790;28;20045;-71
2022/06/05 00:24:08;;;;;;;15.43;9.95;;;;;;;;;;5057290;28;20120;-73
2022/06/05 00:26:36;;;;;;;13.43;9.85;;;;;;;;;;5056643;28;20039;-73
2022/06/05 00:29:27;;;;;;;12.63;9.40;;;;;;;;;;5056167;28;20497;-72
2022/06/05 00:32:23;;;;;;;13.65;9.23;;;;;;;;;;5056477;28;20036;-73
2022/06/05 00:34:48;;;;;;;14.75;9.68;;;;;;;;;;5054165;28;20037;-72
2022/06/05 00:37:48;;;;;;;15.20;9.30;;;;;;;;;;5054481;28;20542;-73
2022/06/05 00:40:28;;;;;;;11.57;8.93;;;;;;;;;;5049880;28;20029;-72
2022/06/05 00:42:56;;;;;;;14.80;8.95;;;;;;;;;;5051226;28;20025;-72
2022/06/05 00:45:21;;;;;;;12.50;8.95;;;;;;;;;;5050428;28;20114;-71
2022/06/05 00:47:47;;;;;;;13.50;9.32;;;;;;;;;;5051120;28;20079;-73
2022/06/05 00:50:32;;;;;;;13.75;8.55;;;;;;;;;;5050864;28;20032;-74
2022/06/05 00:53:07;;;;;;;13.07;8.80;;;;;;;;;;5050581;28;20444;-71
2022/06/05 00:55:41;;;;;;;13.85;9.23;;;;;;;;;;5050558;28;20099;-72
2022/06/05 00:58:07;;;;;;;11.40;8.65;;;;;;;;;;5050649;28;20112;-72
2022/06/05 01:00:37;;;;;;;15.65;8.80;;;;;;;;;;5050466;28;20029;-69
2022/06/05 01:03:05;;;;;;;15.32;9.05;;;;;;;;;;5050398;28;20086;-72
2022/06/05 01:05:31;;;;;;;12.13;8.98;;;;;;;;;;5050153;28;20155;-72
2022/06/05 01:07:57;;;;;;;14.18;8.80;;;;;;;;;;5050346;28;20036;-71
2022/06/05 01:10:29;;;;;;;12.48;8.93;;;;;;;;;;5051045;28;20060;-73
2022/06/05 01:13:18;;;;;;;10.60;8.10;;;;;;;;;;5050329;28;20029;-72
2022/06/05 01:16:08;;;;;;;14.32;7.78;;;;;;;;;;5050249;28;20025;-71
2022/06/05 01:18:55;;;;;;;15.07;7.68;;;;;;;;;;5050167;28;20404;-71
2022/06/05 01:22:05;;;;;;;14.85;8.15;;;;;;;;;;5049771;28;20434;-72
2022/06/05 01:24:43;;;;;;;11.35;6.97;;;;;;;;;;5050052;28;20032;-71
2022/06/05 01:27:13;;;;;;;11.20;6.97;;;;;;;;;;5049914;28;20388;-72
2022/06/05 01:29:53;;;;;;;10.93;6.38;;;;;;;;;;5049605;28;20420;-71
2022/06/05 01:32:38;;;;;;;10.02;6.10;;;;;;;;;;5049880;28;20083;-68
2022/06/05 01:35:14;;;;;;;13.50;6.28;;;;;;;;;;5050218;28;20111;-68
2022/06/05 01:38:14;;;;;;;11.85;5.80;;;;;;;;;;5049912;28;20032;-70
2022/06/05 01:40:49;;;;;;;7.68;5.40;;;;;;;;;;5040909;28;20041;-73
2022/06/05 01:43:20;;;;;;;10.02;5.50;;;;;;;;;;5050006;28;20043;-73
2022/06/05 01:45:54;;;;;;;12.38;4.85;;;;;;;;;;5049850;28;20078;-73
2022/06/05 01:48:29;;;;;;;12.50;5.10;;;;;;;;;;5050068;28;20028;-73
2022/06/05 01:50:59;;;;;;;12.02;4.75;;;;;;;;;;5049512;28;20029;-71
2022/06/05 01:53:31;;;;;;;9.60;4.80;;;;;;;;;;5049636;28;20150;-73
2022/06/05 01:56:07;;;;;;;10.18;4.40;;;;;;;;;;5049439;28;20029;-72
2022/06/05 01:58:41;;;;;;;12.43;5.10;;;;;;;;;;5049864;28;20396;-73
2022/06/05 02:01:12;;;;;;;6.35;4.07;;;;;;;;;;5049661;28;20033;-72
2022/06/05 02:03:44;;;;;;;6.22;4.40;;;;;;;;;;5049959;28;20031;-71
2022/06/05 02:06:14;;;;;;;6.57;3.92;;;;;;;;;;5047993;28;20086;-73
2022/06/05 02:08:51;;;;;;;5.55;3.78;;;;;;;;;;5048432;28;20120;-73
2022/06/05 02:11:20;;;;;;;7.72;3.67;;;;;;;;;;5049370;28;20040;-74
2022/06/05 02:13:47;;;;;;;7.13;3.20;;;;;;;;;;5049441;28;20036;-73
2022/06/05 02:16:12;;;;;;;3.85;3.00;;;;;;;;;;5049232;28;20440;-73
2022/06/05 02:18:38;;;;;;;7.82;3.30;;;;;;;;;;5049916;28;20025;-74
2022/06/05 02:21:06;;;;;;;6.88;3.05;;;;;;;;;;5049624;28;20033;-73
2022/06/05 02:23:36;;;;;;;6.53;3.10;;;;;;;;;;5049452;28;20480;-69
2022/06/05 02:26:03;;;;;;;;;;;;;;;;;;5049921;28;20025;-73
2022/06/05 02:28:29;;;;;;;9.35;3.30;;;;;;;;;;5048977;28;20336;-73
2022/06/05 02:31:07;;;;;;;6.30;3.00;;;;;;;;;;5049219;28;20036;-73
2022/06/05 02:34:03;;;;;;;5.18;3.10;;;;;;;;;;5049252;28;20546;-71
2022/06/05 02:36:59;;;;;;;6.45;2.90;;;;;;;;;;5049268;28;20283;-71
2022/06/05 02:39:57;;;;;;;6.07;2.70;;;;;;;;;;5049441;28;20017;-73
2022/06/05 02:42:34;;;;;;;5.80;2.45;;;;;;;;;;5044623;28;20128;-72
2022/06/05 02:45:25;;;;;;;8.27;2.33;;;;;;;;;;5052999;28;20035;-70
2022/06/05 02:48:18;;;;;;;7.05;2.70;;;;;;;;;;5052920;28;20036;-72
2022/06/05 02:50:49;;;;;;;5.43;2.38;;;;;;;;;;5052785;28;20189;-72
2022/06/05 02:53:14;;;;;;;;;;;;;;;;;;5053410;28;20021;-73
2022/06/05 02:55:40;;;;;;;5.78;2.70;;;;;;;;;;5052844;28;19946;-72
2022/06/05 02:58:06;;;;;;;5.60;2.50;;;;;;;;;;5052925;28;20024;-73
2022/06/05 03:00:35;;;;;;;8.70;2.80;;;;;;;;;;5052763;28;20025;-73
2022/06/05 03:05:45;;;;;;;6.65;2.75;;;;;;;;;;5052423;28;20120;-74
2022/06/05 03:08:13;;;;;;;6.20;2.83;;;;;;;;;;5052845;28;20056;-73
2022/06/05 03:10:40;;;;;;;5.20;2.58;;;;;;;;;;5051285;28;20040;-72
2022/06/05 03:13:05;;;;;;;5.95;3.10;;;;;;;;;;5052519;28;20029;-73
2022/06/05 03:15:32;;;;;;;5.50;2.70;;;;;;;;;;5052284;28;20025;-72
2022/06/05 03:17:58;;;;;;;5.45;2.70;;;;;;;;;;5052418;28;20025;-73
2022/06/05 03:20:24;;;;;;;5.80;2.70;;;;;;;;;;5052348;28;20071;-72
2022/06/05 03:22:50;;;;;;;9.30;3.30;;;;;;;;;;5051946;28;20181;-73
2022/06/05 03:25:19;;;;;;;4.80;2.80;;;;;;;;;;5052181;28;20039;-73
2022/06/05 03:27:45;;;;;;;8.63;3.08;;;;;;;;;;5052470;28;20222;-73
2022/06/05 03:30:12;;;;;;;6.97;3.10;;;;;;;;;;5052154;28;20213;-72
2022/06/05 03:32:37;;;;;;;7.15;3.30;;;;;;;;;;5052420;28;20025;-73
2022/06/05 03:35:05;;;;;;;4.55;3.03;;;;;;;;;;5052078;28;20025;-73
2022/06/05 03:37:31;;;;;;;6.53;3.33;;;;;;;;;;5051700;28;20104;-73
2022/06/05 03:39:56;;;;;;;5.97;3.35;;;;;;;;;;5051816;28;20104;-73
2022/06/05 03:42:23;;;;;;;11.48;3.08;;;;;;;;;;5052102;28;20021;-73
2022/06/05 03:44:48;;;;;;;5.57;3.42;;;;;;;;;;5051975;28;20112;-73
2022/06/05 03:47:14;;;;;;;6.10;3.33;;;;;;;;;;5051758;28;20096;-72
2022/06/05 03:49:39;;;;;;;5.57;3.40;;;;;;;;;;5052029;28;20111;-72
2022/06/05 03:52:06;;;;;;;8.02;3.25;;;;;;;;;;5051842;28;20146;-73
2022/06/05 03:54:33;;;;;;;5.95;3.30;;;;;;;;;;5051550;28;20025;-73
2022/06/05 03:56:59;;;;;;;9.30;3.50;;;;;;;;;;5051456;28;20472;-73
2022/06/05 03:59:25;;;;;;;7.88;3.25;;;;;;;;;;5051575;28;20029;-73
2022/06/05 04:01:50;;;;;;;5.38;3.53;;;;;;;;;;5051916;28;20074;-73
2022/06/05 04:04:16;;;;;;;8.73;3.30;;;;;;;;;;5051675;28;20401;-74
2022/06/05 04:06:41;;;;;;;7.20;3.40;;;;;;;;;;5051416;28;20029;-73
2022/06/05 04:09:08;;;;;;;9.23;3.22;;;;;;;;;;5051653;28;20392;-73
2022/06/05 04:11:35;;;;;;;4.28;2.83;;;;;;;;;;5051462;28;20035;-73
2022/06/05 04:14:01;;;;;;;6.07;3.15;;;;;;;;;;5051305;28;20412;-73
2022/06/05 04:16:29;;;;;;;9.68;3.28;;;;;;;;;;5051317;28;20021;-74
2022/06/05 04:18:57;;;;;;;9.55;2.75;;;;;;;;;;5049992;28;20121;-73
2022/06/05 04:21:26;;;;;;;8.05;3.38;;;;;;;;;;5051123;28;20061;-72
2022/06/05 04:23:53;;;;;;;8.90;3.00;;;;;;;;;;5051443;28;20032;-73
2022/06/05 04:26:22;;;;;;;7.78;3.20;;;;;;;;;;5051148;28;20064;-73
2022/06/05 04:28:47;;;;;;;12.45;3.22;;;;;;;;;;5051097;28;20029;-72
2022/06/05 04:31:22;;;;;;;6.85;3.08;;;;;;;;;;5050945;28;20026;-72
2022/06/05 04:33:48;;;;;;;5.72;3.00;;;;;;;;;;5051041;28;20415;-72
2022/06/05 04:36:14;;;;;;;7.28;2.95;;;;;;;;;;5050603;28;20025;-69
2022/06/05 04:38:40;;;;;;;7.25;2.60;;;;;;;;;;5050946;28;20396;-72
2022/06/05 04:41:06;;;;;;;3.65;2.45;;;;;;;;;;5051073;28;20033;-71
2022/06/05 04:43:31;;;;;;;4.00;2.60;;;;;;;;;;5051070;28;20516;-68
2022/06/05 04:45:57;;;;;;;3.97;2.40;;;;;;;;;;5051493;28;20025;-68
2022/06/05 04:48:22;;;;;;;3.08;2.30;;;;;;;;;;5050635;28;20017;-68
2022/06/05 04:50:48;;;;;;;4.82;2.40;;;;;;;;;;5050705;28;20419;-72
2022/06/05 04:53:13;;;;;;;7.07;2.65;;;;;;;;;;5050649;28;20028;-73
2022/06/05 04:55:39;;;;;;;5.60;2.47;;;;;;;;;;5050913;28;20025;-73
2022/06/05 04:58:05;;;;;;;5.03;2.35;;;;;;;;;;5050408;28;20025;-74
2022/06/05 05:00:30;;;;;;;5.55;2.40;;;;;;;;;;5050639;28;20029;-70
2022/06/05 05:02:56;;;;;;;6.00;2.40;;;;;;;;;;5050742;28;20090;-73
2022/06/05 05:05:22;;;;;;;6.00;2.40;;;;;;;;;;5050028;28;20029;-74
2022/06/05 05:07:47;;;;;;;5.68;2.40;;;;;;;;;;5049873;28;20082;-73
2022/06/05 05:10:13;;;;;;;8.35;2.30;;;;;;;;;;5050549;28;20029;-72
2022/06/05 05:12:39;;;;;;;6.30;2.35;;;;;;;;;;5050504;28;20061;-73
2022/06/05 05:15:05;;;;;;;6.00;2.45;;;;;;;;;;5050337;28;20433;-72
2022/06/05 05:17:31;;;;;;;6.53;2.30;;;;;;;;;;5050478;28;20602;-73
2022/06/05 05:19:57;;;;;;;6.97;2.22;;;;;;;;;;5050449;28;20670;-74
2022/06/05 05:22:22;;;;;;;6.53;2.55;;;;;;;;;;5049832;28;20120;-71
2022/06/05 05:24:48;;;;;;;3.65;2.22;;;;;;;;;;5050455;28;20151;-67
2022/06/05 05:27:14;;;;;;;7.03;2.50;;;;;;;;;;5050172;28;20389;-67
2022/06/05 05:29:41;;;;;;;6.85;2.50;;;;;;;;;;5050124;28;20029;-69
2022/06/05 05:32:08;;;;;;;6.45;2.63;;;;;;;;;;5049992;28;20506;-73
2022/06/05 05:34:33;;;;;;;6.88;2.67;;;;;;;;;;5050301;28;20017;-67
2022/06/05 05:36:59;;;;;;;6.90;2.35;;;;;;;;;;5049746;28;20148;-70
2022/06/05 05:42:10;;;;;;;6.55;2.65;;;;;;;;;;5050141;28;20199;-74
2022/06/05 05:44:46;;;;;;;7.18;2.70;;;;;;;;;;5050014;28;20025;-71
2022/06/05 05:47:21;;;;;;;7.25;2.95;;;;;;;;;;5049978;28;20063;-73
2022/06/05 05:49:50;;;;;;;13.50;3.00;;;;;;;;;;5049932;28;20387;-73
2022/06/05 05:52:16;;;;;;;6.68;2.92;;;;;;;;;;5050170;28;20206;-73
2022/06/05 05:54:41;;;;;;;4.75;2.70;;;;;;;;;;5050063;28;20199;-69
2022/06/05 05:57:08;;;;;;;7.10;2.55;;;;;;;;;;5049856;28;20484;-70
2022/06/05 05:59:34;;;;;;;8.38;2.65;;;;;;;;;;5050177;28;20025;-69
2022/06/05 06:02:00;;;;;;;9.00;3.00;;;;;;;;;;5049572;28;20107;-68
2022/06/05 06:04:25;;;;;;;6.63;2.72;;;;;;;;;;5049684;28;20512;-74
2022/06/05 06:06:50;;;;;;;8.57;2.85;;;;;;;;;;5049419;28;20102;-68
2022/06/05 06:09:17;;;;;;;10.43;3.00;;;;;;;;;;5049747;28;20020;-72
2022/06/05 06:11:43;;;;;;;4.68;2.90;;;;;;;;;;5049526;28;20041;-73
2022/06/05 06:14:09;;;;;;;8.63;3.15;;;;;;;;;;5049464;28;20442;-73
2022/06/05 06:16:35;;;;;;;6.88;3.30;;;;;;;;;;5051002;28;20582;-72
2022/06/05 06:19:01;;;;;;;5.68;2.97;;;;;;;;;;5053569;28;20226;-73
2022/06/05 06:21:27;;;;;;;6.75;3.63;;;;;;;;;;5053268;28;20043;-73
2022/06/05 06:23:53;;;;;;;5.32;3.00;;;;;;;;;;5053717;28;20025;-74
2022/06/05 06:26:18;;;;;;;8.50;3.28;;;;;;;;;;5053706;28;20448;-73
2022/06/05 06:28:44;;;;;;;9.68;3.13;;;;;;;;;;5053400;28;20394;-72
2022/06/05 06:31:12;;;;;;;7.00;3.00;;;;;;;;;;5053307;28;20473;-73
2022/06/05 06:33:38;;;;;;;10.68;3.50;;;;;;;;;;5053320;28;20033;-74
2022/06/05 06:36:07;;;;;;;8.43;3.10;;;;;;;;;;5053090;28;20821;-70
2022/06/05 06:38:33;;;;;;;8.05;3.15;;;;;;;;;;5053109;28;20035;-73
2022/06/05 06:41:10;;;;;;;9.15;3.50;;;;;;;;;;5053530;28;20150;-72
2022/06/05 06:43:36;;;;;;;6.88;3.22;;;;;;;;;;5053254;28;20053;-74
2022/06/05 06:46:02;;;;;;;6.97;3.25;;;;;;;;;;5053339;28;20051;-73
2022/06/05 06:48:28;;;;;;;10.13;3.42;;;;;;;;;;5053101;28;20480;-74
2022/06/05 06:50:54;;;;;;;8.80;3.22;;;;;;;;;;5052968;28;20068;-73
2022/06/05 06:53:20;;;;;;;10.50;3.30;;;;;;;;;;5053110;28;20029;-73
2022/06/05 06:55:46;;;;;;;6.95;3.20;;;;;;;;;;5052984;28;20034;-74
2022/06/05 06:58:11;;;;;;;8.70;3.17;;;;;;;;;;5052497;28;20512;-73
2022/06/05 07:00:37;;;;;;;10.05;3.53;;;;;;;;;;5052874;28;20029;-74
2022/06/05 07:03:03;;;;;;;7.75;3.40;;;;;;;;;;5052886;28;20059;-74
2022/06/05 07:05:28;;;;;;;8.77;3.25;;;;;;;;;;5051272;28;20396;-73
2022/06/05 07:07:53;;;;;;;7.05;2.95;;;;;;;;;;5052510;28;20464;-73
2022/06/05 07:10:19;;;;;;;6.68;3.10;;;;;;;;;;5052434;28;20017;-72
2022/06/05 07:12:44;;;;;;;5.15;2.90;;;;;;;;;;5052317;28;20084;-69
2022/06/05 07:15:10;;;;;;;6.20;3.00;;;;;;;;;;5052630;28;20067;-73
2022/06/05 07:17:35;;;;;;;8.95;3.30;;;;;;;;;;5052272;28;20582;-73
2022/06/05 07:20:01;;;;;;;12.07;2.80;;;;;;;;;;5052451;28;20040;-73
2022/06/05 07:22:27;;;;;;;6.65;2.95;;;;;;;;;;5052087;28;20055;-73
2022/06/05 07:24:53;;;;;;;8.32;2.53;;;;;;;;;;5052469;28;20514;-73
2022/06/05 07:27:19;;;;;;;7.93;2.50;;;;;;;;;;5051648;28;20021;-72
2022/06/05 07:29:44;;;;;;;7.55;2.83;;;;;;;;;;5051781;28;20483;-73
2022/06/05 07:32:11;;;;;;;7.65;3.00;;;;;;;;;;5052080;28;20061;-73
2022/06/05 07:34:37;;;;;;;9.00;2.92;;;;;;;;;;5052285;28;20090;-73
2022/06/05 07:37:03;;;;;;;5.85;3.17;;;;;;;;;;5051926;28;20120;-73
2022/06/05 07:39:29;;;;;;;4.18;2.88;;;;;;;;;;5052051;28;20061;-70
2022/06/05 07:41:58;;;;;;;5.22;2.80;;;;;;;;;;5052055;28;20056;-73
2022/06/05 07:44:24;;;;;;;7.10;2.60;;;;;;;;;;5050578;28;20542;-73
2022/06/05 07:46:50;;;;;;;6.80;2.63;;;;;;;;;;5052100;28;20052;-72
2022/06/05 07:49:16;;;;;;;7.75;2.83;;;;;;;;;;5051956;28;20505;-72
2022/06/05 07:54:36;;;;;;;7.57;2.78;;;;;;;;;;5052133;28;20071;-73
2022/06/05 07:57:05;;;;;;;8.00;2.85;;;;;;;;;;5051988;28;20112;-72
2022/06/05 07:59:34;;;;;;;7.85;2.70;;;;;;;;;;5051502;28;20047;-73
2022/06/05 08:02:04;;;;;;;9.13;2.88;;;;;;;;;;5051499;28;20527;-74
2022/06/05 08:04:30;;;;;;;5.75;2.63;;;;;;;;;;5051303;28;20029;-74
2022/06/05 08:06:58;;;;;;;7.95;3.00;;;;;;;;;;5051243;28;20037;-73
2022/06/05 08:09:24;;;;;;;7.30;3.03;;;;;;;;;;5051336;28;20029;-73
2022/06/05 08:11:50;;;;;;;10.68;2.92;;;;;;;;;;5051483;28;20116;-73
2022/06/05 08:14:15;;;;;;;6.72;2.47;;;;;;;;;;5051356;28;20108;-72
2022/06/05 08:16:43;;;;;;;6.13;2.67;;;;;;;;;;5051365;28;20025;-73
2022/06/05 08:19:13;;;;;;;7.30;2.78;;;;;;;;;;5051059;28;20425;-73
2022/06/05 08:21:40;;;;;;;5.63;2.70;;;;;;;;;;5050891;28;20049;-70
2022/06/05 08:24:06;;;;;;;6.97;2.70;;;;;;;;;;5051148;28;20029;-73
2022/06/05 08:26:33;;;;;;;7.10;2.90;;;;;;;;;;5051614;28;20051;-73
2022/06/05 08:28:59;;;;;;;6.18;2.92;;;;;;;;;;5050980;28;20013;-71
2022/06/05 08:31:27;;;;;;;8.55;2.97;;;;;;;;;;5051258;28;20076;-73
2022/06/05 08:33:53;;;;;;;7.93;3.35;;;;;;;;;;5051170;28;20512;-74
2022/06/05 08:36:19;;;;;;;7.93;3.05;;;;;;;;;;5050723;28;20113;-73
2022/06/05 08:41:28;;;;;;;11.20;3.00;;;;;;;;;;5050307;28;20504;-73
2022/06/05 08:44:21;;;;;;;5.20;3.10;;;;;;;;;;5050889;28;20021;-72
2022/06/05 08:46:56;;;;;;;9.30;3.28;;;;;;;;;;5050901;28;20033;-71
2022/06/05 08:49:43;;;;;;;10.23;2.97;;;;;;;;;;5050470;28;20028;-74
2022/06/05 08:52:18;;;;;;;8.80;3.22;;;;;;;;;;5050702;28;20461;-73
2022/06/05 08:54:56;;;;;;;13.18;3.13;;;;;;;;;;5050689;28;20055;-72
2022/06/05 08:57:37;;;;;;;9.23;2.72;;;;;;;;;;5050714;28;20053;-72
2022/06/05 09:00:06;;;;;;;6.15;2.58;;;;;;;;;;5051032;28;20353;-73
2022/06/05 09:03:00;;;;;;;7.85;2.75;;;;;;;;;;5050895;28;20446;-70
2022/06/05 09:05:36;;;;;;;5.43;2.50;;;;;;;;;;5050036;28;20043;-72
2022/06/05 09:08:08;;;;;;;9.60;3.00;;;;;;;;;;5050767;28;20040;-72
2022/06/05 09:10:43;;;;;;;7.72;2.80;;;;;;;;;;5050331;28;20029;-72
2022/06/05 09:13:22;;;;;;;10.38;3.50;;;;;;;;;;5050201;28;20111;-71
2022/06/05 09:16:01;;;;;;;4.93;2.75;;;;;;;;;;5050032;28;20396;-72
2022/06/05 09:18:35;;;;;;;7.55;2.95;;;;;;;;;;5050314;28;20031;-72
2022/06/05 09:21:06;;;;;;;8.65;2.92;;;;;;;;;;5050302;28;20043;-72
2022/06/05 09:23:41;;;;;;;8.75;2.97;;;;;;;;;;5050304;28;20045;-72
2022/06/05 09:26:19;;;;;;;8.77;2.85;;;;;;;;;;5050178;28;20124;-72
2022/06/05 09:29:06;;;;;;;9.65;3.03;;;;;;;;;;5049951;28;20027;-72
2022/06/05 09:31:53;;;;;;;8.63;3.05;;;;;;;;;;5049910;28;20028;-69
2022/06/05 09:34:31;;;;;;;7.57;2.70;;;;;;;;;;5050304;28;20385;-72
2022/06/05 09:37:21;;;;;;;9.30;2.67;;;;;;;;;;5049922;28;20021;-72
2022/06/05 09:40:20;;;;;;;6.45;2.60;;;;;;;;;;5049946;28;20484;-72
2022/06/05 09:43:13;;;;;;;6.95;2.70;;;;;;;;;;5050030;28;20465;-73
2022/06/05 09:46:00;;;;;;;7.75;2.53;;;;;;;;;;5049909;28;20074;-72
2022/06/05 09:48:42;;;;;;;7.65;2.88;;;;;;;;;;5049537;28;20203;-73
2022/06/05 09:51:10;;;;;;;6.60;2.60;;;;;;;;;;5049154;28;20056;-72
2022/06/05 09:53:42;;;;;;;5.03;2.25;;;;;;;;;;5050230;28;20033;-69
2022/06/05 09:56:29;;;;;;;9.55;2.70;;;;;;;;;;5049856;28;20488;-71
2022/06/05 09:59:19;;;;;;;7.82;2.50;;;;;;;;;;5049841;28;20481;-72
2022/06/05 10:02:06;;;;;;;8.77;2.78;;;;;;;;;;5050037;28;20298;-71
2022/06/05 10:04:33;;;;;;;8.10;2.53;;;;;;;;;;5049553;28;20417;-73
2022/06/05 10:07:13;;;;;;;8.32;2.55;;;;;;;;;;5049455;28;20036;-74
2022/06/05 10:09:44;;;;;;;6.00;2.43;;;;;;;;;;5049558;28;20040;-73
2022/06/05 10:12:23;;;;;;;5.70;2.22;;;;;;;;;;5049615;28;20123;-70
2022/06/05 10:14:57;;;;;;;8.50;2.60;;;;;;;;;;5049760;28;20171;-73
2022/06/05 10:17:37;;;;;;;7.57;2.55;;;;;;;;;;5049613;28;20060;-73
2022/06/05 10:20:27;;;;;;;5.07;2.60;;;;;;;;;;5049962;28;20278;-71
2022/06/05 10:23:24;;;;;;;6.60;2.60;;;;;;;;;;5049404;28;20045;-72
2022/06/05 10:26:37;;;;;;;5.68;2.20;;;;;;;;;;5049416;28;20051;-72
2022/06/05 10:29:16;;;;;;;5.68;2.08;;;;;;;;;;5039976;28;20048;-72
2022/06/05 10:31:57;;;;;;;6.15;2.30;;;;;;;;;;5049587;28;20029;-71
2022/06/05 10:34:46;;;;;;;6.28;2.20;;;;;;;;;;5049515;28;20029;-72
2022/06/05 10:37:24;;;;;;;6.47;2.03;;;;;;;;;;5049643;28;20235;-72
2022/06/05 10:40:01;;;;;;;9.18;2.50;;;;;;;;;;5049164;28;20496;-74
2022/06/05 10:42:47;;;;;;;6.75;2.22;;;;;;;;;;5049311;28;20116;-71
2022/06/05 10:45:18;;;;;;;4.32;2.00;;;;;;;;;;5049335;28;20052;-74
2022/06/05 10:48:02;;;;;;;6.43;2.15;;;;;;;;;;5049424;28;20056;-72
2022/06/05 10:51:01;;;;;;;5.18;2.28;;;;;;;;;;5049204;28;20104;-72
2022/06/05 10:53:43;;;;;;;5.60;2.13;;;;;;;;;;5049274;28;20060;-73
2022/06/05 10:56:16;;;;;;;6.82;2.00;;;;;;;;;;5049257;28;20060;-73
2022/06/05 10:59:23;;;;;;;6.63;2.17;;;;;;;;;;5049178;28;20465;-74
2022/06/05 11:02:30;;;;;;;6.20;2.20;;;;;;;;;;5049000;28;20029;-71
2022/06/05 11:05:11;;;;;;;3.63;2.20;;;;;;;;;;5038201;28;20386;-73
2022/06/05 11:07:39;;;;;;;4.72;2.10;;;;;;;;;;5052979;28;20037;-72
2022/06/05 11:13:40;;;;;;;5.28;2.05;;;;;;;;;;5044845;28;20032;-74
2022/06/05 11:16:47;;;;;;;4.53;2.00;;;;;;;;;;5052822;28;20033;-73
2022/06/05 11:19:32;;;;;;;5.78;2.00;;;;;;;;;;5052209;28;20036;-73
2022/06/05 11:22:01;;;;;;;3.80;1.83;;;;;;;;;;5052255;28;20347;-72
2022/06/05 11:24:34;;;;;;;3.78;1.85;;;;;;;;;;5052436;28;20029;-74
2022/06/05 11:27:25;;;;;;;4.25;1.88;;;;;;;;;;5052402;28;20033;-73
2022/06/05 11:29:57;;;;;;;5.10;1.92;;;;;;;;;;5052526;28;20048;-73
2022/06/05 11:32:48;;;;;;;5.90;2.17;;;;;;;;;;5052246;28;20090;-73
2022/06/05 11:35:33;;;;;;;6.03;1.90;;;;;;;;;;5052070;28;20496;-73
2022/06/05 11:38:17;;;;;;;5.85;1.90;;;;;;;;;;5052326;28;20047;-73
2022/06/05 11:41:02;;;;;;;5.07;2.00;;;;;;;;;;5052059;28;20024;-73
2022/06/05 11:43:36;;;;;;;6.38;2.00;;;;;;;;;;5052235;28;20035;-74
2022/06/05 11:46:11;;;;;;;3.53;1.83;;;;;;;;;;5052359;28;20025;-73
2022/06/05 11:48:49;;;;;;;5.53;2.20;;;;;;;;;;5052247;28;20028;-73
2022/06/05 11:51:45;;;;;;;5.22;1.98;;;;;;;;;;5051750;28;20025;-72
2022/06/05 11:54:19;;;;;;;5.38;1.80;;;;;;;;;;5051614;28;20033;-72
2022/06/05 11:57:18;;;;;;;3.85;1.80;;;;;;;;;;5052032;28;20033;-74
2022/06/05 11:59:59;;;;;;;5.03;2.00;;;;;;;;;;5043891;28;20037;-73
2022/06/05 12:02:33;;;;;;;4.43;1.90;;;;;;;;;;5051686;28;20037;-71
2022/06/05 12:04:58;;;;;;;5.10;1.98;;;;;;;;;;5051780;28;20043;-72
2022/06/05 12:07:25;;;;;;;7.70;2.00;;;;;;;;;;5051691;28;20111;-74
2022/06/05 12:09:59;;;;;;;5.45;1.95;;;;;;;;;;5051115;28;20056;-73
2022/06/05 12:12:48;;;;;;;6.30;2.00;;;;;;;;;;5051348;28;20029;-71
2022/06/05 12:15:27;;;;;;;4.22;1.90;;;;;;;;;;5050966;28;20041;-73
2022/06/05 12:18:04;;;;;;;3.28;1.88;;;;;;;;;;5051566;28;20048;-73
2022/06/05 12:20:44;;;;;;;3.42;1.65;;;;;;;;;;5051171;28;20020;-72
2022/06/05 12:23:33;;;;;;;4.35;1.90;;;;;;;;;;5051330;28;20044;-71
2022/06/05 12:26:21;;;;;;;2.80;1.60;;;;;;;;;;5051300;28;20487;-72
2022/06/05 12:29:01;;;;;;;3.78;1.90;;;;;;;;;;5051000;28;20025;-73
2022/06/05 12:31:31;;;;;;;3.03;1.67;;;;;;;;;;5051149;28;20156;-72
2022/06/05 12:34:04;;;;;;;5.22;1.80;;;;;;;;;;5051287;28;20032;-71
2022/06/05 12:36:35;;;;;;;4.32;2.08;;;;;;;;;;5051030;28;20436;-72
2022/06/05 12:39:05;;;;;;;5.13;2.25;;;;;;;;;;5050994;28;20079;-73
2022/06/05 12:41:54;;;;;;;3.70;2.00;;;;;;;;;;5051012;28;20029;-72
2022/06/05 12:44:26;;;;;;;4.50;2.13;;;;;;;;;;5050956;28;20041;-71
2022/06/05 12:46:59;;;;;;;5.30;2.10;;;;;;;;;;5051021;28;20041;-72
2022/06/05 12:49:41;;;;;;;4.45;1.90;;;;;;;;;;5050794;28;20057;-72
2022/06/05 12:52:19;;;;;;;3.75;1.92;;;;;;;;;;5050552;28;20035;-73
2022/06/05 12:54:54;;;;;;;2.88;1.70;;;;;;;;;;5050803;28;20028;-72
2022/06/05 12:57:33;;;;;;;6.65;2.10;;;;;;;;;;5050682;28;20028;-74
2022/06/05 13:00:34;;;;;;;4.90;1.80;;;;;;;;;;5049238;28;20029;-73
2022/06/05 13:03:05;;;;;;;;;;;;;;;;;;5050944;28;20035;-71
2022/06/05 13:05:48;;;;;;;4.43;2.03;;;;;;;;;;5050318;28;19999;-74
2022/06/05 13:08:24;;;;;;;3.80;2.10;;;;;;;;;;5050764;28;20109;-72
2022/06/05 13:11:03;;;;;;;5.22;1.88;;;;;;;;;;5050758;28;20024;-72
2022/06/05 13:13:35;;;;;;;3.97;1.80;;;;;;;;;;5050572;28;20162;-70
2022/06/05 13:16:17;;;;;;;2.65;1.60;;;;;;;;;;5050422;28;20507;-73
2022/06/05 13:19:10;;;;;;;4.32;1.70;;;;;;;;;;5050171;28;20057;-73
2022/06/05 13:21:49;;;;;;;5.57;1.90;;;;;;;;;;5049830;28;20479;-72
2022/06/05 13:24:38;;;;;;;4.03;1.83;;;;;;;;;;5050186;28;20512;-73
2022/06/05 13:27:21;;;;;;;4.30;1.80;;;;;;;;;;5049884;28;20024;-73
2022/06/05 13:30:02;;;;;;;4.25;1.60;;;;;;;;;;5050067;28;20213;-72
2022/06/05 13:32:33;;;;;;;;;;;;;;;;;;5050512;28;20492;-72
2022/06/05 13:35:25;;;;;;;3.28;1.60;;;;;;;;;;5050023;28;19913;-71
2022/06/05 13:38:20;;;;;;;4.72;1.70;;;;;;;;;;5050045;28;20021;-72
2022/06/05 13:40:56;;;;;;;4.18;1.80;;;;;;;;;;5049816;28;20033;-72
2022/06/05 13:43:28;;;;;;;4.28;1.70;;;;;;;;;;5050006;28;20056;-72
2022/06/05 13:46:21;;;;;;;5.47;1.90;;;;;;;;;;5049947;28;20069;-71
2022/06/05 13:49:20;;;;;;;3.90;1.70;;;;;;;;;;5049990;28;20473;-73
2022/06/05 13:52:11;;;;;;;3.65;1.55;;;;;;;;;;5049519;28;20473;-72
2022/06/05 13:54:49;;;;;;;6.20;1.70;;;;;;;;;;5049684;28;20108;-73
2022/06/05 13:57:21;;;;;;;3.90;1.65;;;;;;;;;;5049842;28;20029;-72
2022/06/05 13:59:52;;;;;;;3.88;1.70;;;;;;;;;;5049549;28;20024;-74
2022/06/05 14:02:36;;;;;;;3.92;1.67;;;;;;;;;;5049789;28;20493;-73
2022/06/05 14:05:13;;;;;;;5.88;1.73;;;;;;;;;;5049654;28;20056;-73
2022/06/05 14:08:04;;;;;;;3.65;1.73;;;;;;;;;;5049616;28;20025;-72
2022/06/05 14:10:33;;;;;;;3.45;1.60;;;;;;;;;;5030674;28;20095;-72
2022/06/05 14:13:11;;;;;;;2.83;1.50;;;;;;;;;;5049501;28;20123;-72
2022/06/05 14:15:43;;;;;;;3.35;1.38;;;;;;;;;;5049442;28;20040;-73
2022/06/05 14:18:19;;;;;;;3.85;1.52;;;;;;;;;;5049495;28;20024;-73
2022/06/05 14:20:48;;;;;;;3.50;1.65;;;;;;;;;;5049623;28;20055;-73
2022/06/05 14:23:20;;;;;;;2.33;1.35;;;;;;;;;;5049338;28;20049;-73
2022/06/05 14:25:51;;;;;;;3.92;1.60;;;;;;;;;;5049378;28;20033;-73
2022/06/05 14:28:19;;;;;;;4.60;1.70;;;;;;;;;;5049296;28;20117;-72
2022/06/05 14:31:02;;;;;;;3.10;1.60;;;;;;;;;;5048922;28;20441;-71
2022/06/05 14:33:31;;;;;;;3.08;1.40;;;;;;;;;;5049110;28;20123;-73
2022/06/05 14:35:56;;;;;;;3.90;1.55;;;;;;;;;;5049263;28;20029;-72
2022/06/05 14:38:38;;;;;;;3.63;1.60;;;;;;;;;;5052111;28;20032;-73
2022/06/05 14:41:12;;;;;;;3.58;1.73;;;;;;;;;;5053114;28;20028;-73
2022/06/05 14:43:56;;;;;;;3.58;1.70;;;;;;;;;;5053185;28;20029;-73
2022/06/05 14:46:52;;;;;;;4.97;1.60;;;;;;;;;;5053010;28;20025;-72
2022/06/05 14:49:29;;;;;;;6.97;1.73;;;;;;;;;;5053035;28;20028;-73
2022/06/05 14:52:19;;;;;;;3.00;1.50;;;;;;;;;;5052657;28;20403;-73
2022/06/05 14:57:52;;;;;;;3.08;1.70;;;;;;;;;;5053526;28;20295;-72
2022/06/05 15:00:50;;;;;;;3.00;1.30;;;;;;;;;;5052795;28;20040;-72
2022/06/05 15:03:53;;;;;;;6.18;1.83;;;;;;;;;;5052773;28;20040;-74
2022/06/05 15:06:24;;;;;;;3.83;1.65;;;;;;;;;;5052693;28;20041;-73
2022/06/05 15:09:06;;;;;;;5.55;1.80;;;;;;;;;;5052639;28;20059;-73
2022/06/05 15:11:54;;;;;;;3.15;1.67;;;;;;;;;;5052557;28;20104;-73
2022/06/05 15:14:22;;;;;;;4.68;1.65;;;;;;;;;;5053022;28;20121;-72
2022/06/05 15:17:10;;;;;;;3.20;1.60;;;;;;;;;;5052805;28;20032;-73
2022/06/05 15:19:36;;;;;;;3.05;1.70;;;;;;;;;;5053144;28;20543;-72
2022/06/05 15:22:26;;;;;;;5.25;1.70;;;;;;;;;;5051807;28;20047;-72
2022/06/05 15:25:24;;;;;;;6.85;1.50;;;;;;;;;;5052570;28;20270;-73
2022/06/05 15:28:07;;;;;;;3.72;1.77;;;;;;;;;;5052582;28;20485;-73
2022/06/05 15:30:36;;;;;;;4.10;1.70;;;;;;;;;;5051925;28;20021;-73
2022/06/05 15:33:21;;;;;;;2.92;1.60;;;;;;;;;;5052358;28;20506;-73
2022/06/05 15:36:13;;;;;;;4.68;1.63;;;;;;;;;;5052405;28;20507;-72
2022/06/05 15:38:38;;;;;;;3.72;1.60;;;;;;;;;;5052070;28;20591;-71
2022/06/05 15:41:11;;;;;;;2.63;1.55;;;;;;;;;;5051851;28;20107;-69
2022/06/05 15:44:31;;;;;;;4.85;1.65;;;;;;;;;;5052127;28;20054;-72